Terminal Aerodrome Forecast
Issued by NWS

Home | Current Version | Previous Version | Text Only | Print | Product List | Glossary On
Versions: 1 2 3 4 5 6 7 8 9 10 11 12 13 14 15 16 17 18 19 20 21 22 23
004
FTUS41 KBGM 081405 AAA
TAFRME
TAF AMD
KRME 081405Z 0814/0912 23005KT P6SM -SHSN OVC040
      TEMPO 0814/0816 2SM -SHSN OVC025
     FM081600 27011G19KT P6SM BKN060
     FM090300 27012G20KT 2SM -SHSN OVC025
     FM090500 28012G22KT 1SM -SHSN OVC018
     FM090800 29011G18KT 4SM -SHSN OVC030=

USA.gov is the U.S. government's official web portal to all federal, state and local government web resources and services.